TimeMDT,TemperatureF,Dew PointF,Humidity,Sea Level PressureIn,VisibilityMPH,Wind Direction,Wind SpeedMPH,Gust SpeedMPH,PrecipitationIn,Events,Conditions,WindDirDegrees,DateUTC
12:45 AM,75.2,73.4,94,29.92,8.0,NW,5.8,-,N/A,,Clear,310,2012-10-04 06:45:00
1:50 AM,75.2,73.4,94,29.93,8.0,East,5.8,-,N/A,,Clear,100,2012-10-04 07:50:00
2:51 AM,73.4,71.6,94,29.93,6.0,Calm,Calm,-,N/A,,Clear,0,2012-10-04 08:51:00
3:47 AM,73.4,71.6,94,29.93,6.0,NE,6.9,-,N/A,,Clear,40,2012-10-04 09:47:00
4:43 AM,73.4,71.6,94,29.93,6.0,North,6.9,-,N/A,,Clear,360,2012-10-04 10:43:00
5:08 AM,73.4,71.6,94,29.93,1.0,NNE,6.9,-,N/A,,Clear,30,2012-10-04 11:08:00
5:44 AM,73.4,71.6,94,29.94,0.4,North,6.9,-,N/A,Fog,Fog,10,2012-10-04 11:44:00
6:41 AM,73.4,71.6,94,29.94,3.0,North,6.9,-,N/A,,Clear,10,2012-10-04 12:41:00
7:46 AM,73.4,71.6,94,29.96,5.0,North,5.8,-,N/A,,Clear,360,2012-10-04 13:46:00
8:47 AM,77.0,73.4,89,29.97,8.0,North,6.9,-,N/A,,Clear,10,2012-10-04 14:47:00
9:44 AM,80.6,75.2,84,29.97,10.0,ESE,5.8,-,N/A,,Clear,120,2012-10-04 15:44:00
10:43 AM,82.4,75.2,79,29.97,10.0,NNW,5.8,-,N/A,,Partly Cloudy,340,2012-10-04 16:43:00
11:47 AM,86.0,75.2,70,29.96,10.0,North,3.5,-,N/A,,Partly Cloudy,360,2012-10-04 17:47:00
12:44 PM,86.0,75.2,70,29.94,12.0,South,5.8,-,N/A,,Partly Cloudy,190,2012-10-04 18:44:00
1:45 PM,87.8,75.2,66,29.91,10.0,SW,9.2,-,N/A,,Partly Cloudy,230,2012-10-04 19:45:00
2:46 PM,87.8,75.2,66,29.89,12.0,SW,9.2,-,N/A,,Partly Cloudy,230,2012-10-04 20:46:00
3:44 PM,87.8,77.0,70,29.86,10.0,WSW,11.5,-,N/A,,Partly Cloudy,240,2012-10-04 21:44:00
4:46 PM,86.0,75.2,70,29.86,10.0,WSW,10.4,-,N/A,,Scattered Clouds,250,2012-10-04 22:46:00
5:44 PM,86.0,75.2,70,29.86,10.0,West,12.7,-,N/A,,Clear,280,2012-10-04 23:44:00
6:43 PM,82.4,75.2,79,29.86,10.0,West,9.2,-,N/A,,Clear,280,2012-10-05 00:43:00
7:44 PM,80.6,75.2,84,29.87,8.0,North,5.8,-,N/A,,Clear,350,2012-10-05 01:44:00
8:47 PM,78.8,75.2,89,29.88,8.0,NNW,5.8,-,N/A,,Clear,330,2012-10-05 02:47:00
9:48 PM,78.8,75.2,89,29.90,10.0,NNW,5.8,-,N/A,,Clear,330,2012-10-05 03:48:00
10:43 PM,75.2,73.4,94,29.91,10.0,SE,6.9,-,N/A,,Clear,140,2012-10-05 04:43:00
11:40 PM,77.0,75.2,94,29.93,10.0,SSE,5.8,-,N/A,,Clear,150,2012-10-05 05:40:00